createdAt,value
2019-02-25T00:03:37.176Z,79.30
2019-02-25T00:06:24.988Z,79.40
2019-02-25T00:08:53.552Z,79.60
2019-02-25T00:11:22.200Z,81.10
2019-02-25T00:14:10.019Z,84.40
2019-02-25T00:16:57.853Z,84.80
2019-02-25T00:19:38.311Z,83.10
2019-02-25T00:22:19.430Z,81.60
2019-02-25T00:25:00.311Z,82.00
2019-02-25T00:27:28.787Z,82.00
2019-02-25T00:30:16.603Z,83.60
2019-02-25T00:33:04.411Z,84.70
2019-02-25T00:35:52.197Z,85.80
2019-02-25T00:38:33.369Z,85.10
2019-02-25T00:41:01.913Z,86.70
2019-02-25T00:43:49.703Z,87.60
2019-02-25T00:46:30.720Z,90.20
2019-02-25T00:49:11.403Z,91.30
2019-02-25T00:51:39.883Z,89.90
2019-02-25T00:54:27.692Z,88.80
2019-02-25T00:57:09.048Z,86.40
2019-02-25T00:59:49.940Z,88.40
2019-02-25T01:02:18.424Z,90.40
2019-02-25T01:05:25.789Z,86.80
2019-02-25T01:08:13.662Z,87.30
2019-02-25T01:14:01.299Z,89.20
2019-02-25T01:16:42.510Z,85.90
2019-02-25T01:19:23.166Z,85.80
2019-02-25T01:21:51.767Z,86.60
2019-02-25T01:24:39.603Z,84.00
2019-02-25T01:27:27.398Z,85.60
2019-02-25T01:30:08.062Z,86.60
2019-02-25T01:32:48.964Z,85.60
2019-02-25T01:35:29.656Z,87.70
2019-02-25T01:38:10.765Z,87.60
2019-02-25T01:40:51.662Z,86.60
2019-02-25T01:43:32.511Z,86.60
2019-02-25T01:46:13.322Z,86.60
2019-02-25T01:48:41.796Z,85.90
2019-02-25T01:51:29.614Z,85.00
2019-02-25T01:54:17.415Z,85.30
2019-02-25T01:56:58.095Z,85.90
2019-02-25T01:59:38.827Z,87.20
2019-02-25T02:02:19.695Z,88.30
2019-02-25T02:05:00.650Z,88.40
2019-02-25T02:07:41.750Z,88.00
2019-02-25T02:10:50.267Z,88.00
2019-02-25T02:13:18.724Z,87.00
2019-02-25T02:16:06.538Z,87.50
2019-02-25T02:18:47.670Z,86.40
2019-02-25T02:21:28.608Z,88.20
2019-02-25T02:23:57.088Z,86.90
2019-02-25T02:29:13.041Z,87.80
2019-02-25T02:32:00.851Z,91.00
2019-02-25T02:34:29.295Z,89.20
2019-02-25T02:37:17.113Z,88.80
2019-02-25T02:46:40.269Z,90.00
2019-02-25T02:49:20.930Z,87.40
2019-02-25T02:52:01.456Z,84.20
2019-02-25T02:54:29.920Z,84.80
2019-02-25T02:57:17.717Z,85.20
2019-02-25T02:59:58.841Z,85.10
2019-02-25T03:02:39.506Z,88.70
2019-02-25T03:05:20.538Z,89.70
2019-02-25T03:08:01.372Z,89.50
2019-02-25T03:10:29.923Z,89.60
2019-02-25T03:12:58.385Z,90.80
2019-02-25T03:15:46.270Z,90.60
2019-02-25T03:18:14.828Z,88.60
2019-02-25T03:21:02.705Z,90.60
2019-02-25T03:23:43.522Z,90.70
2019-02-25T03:26:24.449Z,90.10
2019-02-25T03:29:05.152Z,90.30
2019-02-25T03:31:45.921Z,89.20
2019-02-25T03:34:26.540Z,87.80
2019-02-25T03:43:06.769Z,84.40
2019-02-25T03:45:47.442Z,90.00
2019-02-25T03:48:28.526Z,88.00
2019-02-25T03:51:09.247Z,90.60
2019-02-25T03:53:50.120Z,93.50
2019-02-25T03:56:30.902Z,92.10
2019-02-25T03:58:59.933Z,91.20
2019-02-25T04:01:28.608Z,90.40
2019-02-25T04:04:16.497Z,90.80
2019-02-25T04:07:04.437Z,89.60
2019-02-25T04:09:32.916Z,88.60
2019-02-25T04:12:20.697Z,85.90
2019-02-25T04:14:59.502Z,86.70
2019-02-25T04:17:47.364Z,87.80
2019-02-25T04:20:36.690Z,89.70
2019-02-25T04:23:17.404Z,85.60
2019-02-25T04:25:48.050Z,82.80
2019-02-25T04:28:16.576Z,80.10
2019-02-25T04:30:45.057Z,86.50
2019-02-25T04:33:32.928Z,94.60
2019-02-25T04:36:13.388Z,93.30
2019-02-25T04:38:41.875Z,92.40
2019-02-25T04:41:29.698Z,93.00
2019-02-25T04:44:10.910Z,91.10
2019-02-25T04:46:51.547Z,89.70
2019-02-25T04:49:20.080Z,90.00
2019-02-25T04:52:07.880Z,89.00
2019-02-25T04:54:48.563Z,90.00
2019-02-25T04:57:29.206Z,90.60
2019-02-25T05:00:10.212Z,90.90
2019-02-25T05:02:51.143Z,91.50
2019-02-25T05:05:31.965Z,91.90
2019-02-25T05:08:12.532Z,92.60
2019-02-25T05:10:53.237Z,91.80
2019-02-25T05:13:34.056Z,91.40
2019-02-25T05:16:14.809Z,91.80
2019-02-25T05:18:55.565Z,91.50
2019-02-25T05:21:36.073Z,91.80
2019-02-25T05:24:16.617Z,91.80
2019-02-25T05:26:57.079Z,92.10
2019-02-25T05:29:37.929Z,92.00
2019-02-25T05:32:18.771Z,92.40
2019-02-25T05:34:59.720Z,95.60
2019-02-25T05:37:40.597Z,94.30
2019-02-25T05:40:21.524Z,93.30
2019-02-25T05:42:50.045Z,92.10
2019-02-25T05:45:37.856Z,92.30
2019-02-25T05:48:25.646Z,92.60
2019-02-25T05:51:06.011Z,92.50
2019-02-25T05:53:46.904Z,91.30
2019-02-25T05:56:27.637Z,92.60
2019-02-25T05:59:08.449Z,92.40
2019-02-25T06:01:36.926Z,96.10
2019-02-25T06:04:24.798Z,96.50
2019-02-25T06:07:05.209Z,93.60
2019-02-25T06:09:45.977Z,94.90
2019-02-25T06:12:27.001Z,95.70
2019-02-25T06:15:07.935Z,96.10
2019-02-25T06:17:48.808Z,96.00
2019-02-25T06:20:29.729Z,95.10
2019-02-25T06:23:10.430Z,93.10
2019-02-25T06:25:50.621Z,94.00
2019-02-25T06:28:31.448Z,94.60
2019-02-25T06:31:11.992Z,94.00
2019-02-25T06:33:52.753Z,94.60
2019-02-25T06:36:33.780Z,94.40
2019-02-25T06:39:14.505Z,93.80
2019-02-25T06:41:55.487Z,93.10
2019-02-25T06:44:23.976Z,93.40
2019-02-25T06:47:11.788Z,94.00
2019-02-25T06:49:59.602Z,94.50
2019-02-25T06:52:40.801Z,94.60
2019-02-25T06:55:21.806Z,94.60
2019-02-25T06:58:02.460Z,94.80
2019-02-25T07:00:31.086Z,95.20
2019-02-25T07:02:59.569Z,94.20
2019-02-25T07:18:06.756Z,93.80
2019-02-25T07:26:34.545Z,93.40
2019-02-25T07:37:51.792Z,92.30
2019-02-25T08:06:17.768Z,82.80
2019-02-25T08:09:00.544Z,81.80
2019-02-25T08:12:00.082Z,81.10
2019-02-25T08:14:47.751Z,78.80
2019-02-25T08:23:42.384Z,74.60
2019-02-25T08:41:21.971Z,66.60
2019-02-25T08:44:21.414Z,64.80
2019-02-25T08:47:06.309Z,64.60
2019-02-25T08:49:51.440Z,60.90
2019-02-25T08:55:21.205Z,60.70
2019-02-25T08:58:02.067Z,58.70
2019-02-25T09:00:42.896Z,56.80
2019-02-25T09:03:23.623Z,55.30
2019-02-25T09:06:04.196Z,56.10
2019-02-25T09:08:45.107Z,54.10
2019-02-25T09:11:25.560Z,53.60
2019-02-25T09:14:06.796Z,54.20
2019-02-25T09:16:47.528Z,54.20
2019-02-25T09:19:16.155Z,51.80
2019-02-25T09:21:44.645Z,51.60
2019-02-25T09:24:32.466Z,50.40
2019-02-25T09:30:50.242Z,51.90
2019-02-25T09:41:46.200Z,50.70
2019-02-25T09:44:14.762Z,50.80
2019-02-25T09:47:02.570Z,50.90
2019-02-25T09:52:33.347Z,50.00
2019-02-25T09:58:04.056Z,45.30
2019-02-25T10:03:41.375Z,44.80
2019-02-25T10:21:11.134Z,47.80
2019-02-25T10:23:53.903Z,48.60
2019-02-25T10:56:49.396Z,50.40
2019-02-25T10:59:32.124Z,52.00
2019-02-25T11:05:06.275Z,51.80
2019-02-25T11:33:58.593Z,51.90
2019-02-25T11:36:44.142Z,49.80
2019-02-25T11:39:25.374Z,49.80
2019-02-25T11:42:08.015Z,52.20
2019-02-25T12:05:52.598Z,49.00
2019-02-25T12:08:21.901Z,50.00
2019-02-25T12:25:45.574Z,47.40
2019-02-25T12:37:29.485Z,48.50
2019-02-25T12:40:11.363Z,47.70
2019-02-25T12:42:52.453Z,48.10
2019-02-25T12:45:33.452Z,48.00
2019-02-25T12:51:05.353Z,47.20
2019-02-25T12:53:33.812Z,47.00
2019-02-25T12:59:19.867Z,46.70
2019-02-25T13:05:29.403Z,46.50
2019-02-25T13:08:09.903Z,45.70
2019-02-25T13:10:38.644Z,46.80
2019-02-25T13:13:26.441Z,45.90
2019-02-25T13:19:05.435Z,45.60
2019-02-25T13:45:03.412Z,45.30
2019-02-25T13:47:44.765Z,45.20
2019-02-25T13:50:25.587Z,45.50
2019-02-25T13:56:09.735Z,45.50
2019-02-25T13:58:50.900Z,45.20
2019-02-25T14:01:31.708Z,45.40
2019-02-25T14:04:12.219Z,44.70
2019-02-25T14:06:53.041Z,45.50
2019-02-25T14:09:33.718Z,45.00
2019-02-25T14:18:10.707Z,45.30
2019-02-25T14:23:48.258Z,43.80
2019-02-25T14:38:40.541Z,45.60
2019-02-25T14:44:12.068Z,43.40
2019-02-25T14:46:53.016Z,45.20
2019-02-25T14:49:35.237Z,43.10
2019-02-25T14:52:16.623Z,43.90
2019-02-25T14:54:45.944Z,43.80
2019-02-25T15:00:05.640Z,44.40
2019-02-25T15:05:35.400Z,44.90
2019-02-25T15:08:16.441Z,45.00
2019-02-25T15:11:00.020Z,44.30
2019-02-25T15:13:40.301Z,45.20
2019-02-25T15:16:21.257Z,44.80
2019-02-25T15:19:02.224Z,45.20
2019-02-25T15:36:04.620Z,46.50
2019-02-25T15:38:52.481Z,48.00
2019-02-25T15:41:21.043Z,46.20
2019-02-25T15:44:09.422Z,45.30
2019-02-25T15:52:40.095Z,48.00
2019-02-25T15:55:21.319Z,47.80
2019-02-25T15:58:03.583Z,48.80
2019-02-25T16:00:44.820Z,48.70
2019-02-25T16:06:14.552Z,50.60
2019-02-25T16:14:53.151Z,52.70
2019-02-25T16:18:02.342Z,53.30
2019-02-25T16:23:31.812Z,53.20
2019-02-25T16:26:00.027Z,53.00
2019-02-25T16:28:50.264Z,52.20
2019-02-25T16:31:31.495Z,52.50
2019-02-25T16:34:14.326Z,51.20
2019-02-25T16:36:55.982Z,51.80
2019-02-25T16:39:37.457Z,51.70
2019-02-25T16:42:06.339Z,51.80
2019-02-25T16:44:55.716Z,51.80
2019-02-25T16:47:32.776Z,51.70
2019-02-25T16:52:26.282Z,52.10
2019-02-25T16:55:15.594Z,52.80
2019-02-25T16:57:58.919Z,52.80
2019-02-25T17:00:41.183Z,53.10
2019-02-25T17:03:11.171Z,53.00
2019-02-25T17:05:59.547Z,53.50
2019-02-25T17:08:39.891Z,53.70
2019-02-25T17:11:21.869Z,54.10
2019-02-25T17:13:50.532Z,54.50
2019-02-25T17:16:23.505Z,54.90
2019-02-25T17:21:44.445Z,55.40
2019-02-25T17:27:46.597Z,55.60
2019-02-25T17:30:34.527Z,56.00
2019-02-25T17:33:17.304Z,55.60
2019-02-25T17:35:59.458Z,56.40
2019-02-25T17:47:24.525Z,57.30
2019-02-25T17:55:55.975Z,58.90
2019-02-25T18:01:25.882Z,58.90
2019-02-25T18:04:08.305Z,59.10
2019-02-25T18:06:37.100Z,58.60
2019-02-25T18:09:26.112Z,58.80
2019-02-25T18:12:08.593Z,58.80
2019-02-25T18:14:49.725Z,59.40
2019-02-25T18:17:30.969Z,59.50
2019-02-25T18:20:11.955Z,59.80
2019-02-25T18:22:40.660Z,59.60
2019-02-25T18:25:28.915Z,60.20
2019-02-25T18:28:17.813Z,60.70
2019-02-25T18:31:01.627Z,61.10
2019-02-25T18:33:52.638Z,61.70
2019-02-25T18:36:21.831Z,62.80
2019-02-25T18:38:52.705Z,64.00
2019-02-25T18:44:51.277Z,64.00
2019-02-25T18:50:05.494Z,66.00
2019-02-25T18:52:36.774Z,64.40
2019-02-25T18:55:26.654Z,65.10
2019-02-25T18:57:55.325Z,65.20
2019-02-25T19:00:39.508Z,65.50
2019-02-25T19:03:43.458Z,65.30
2019-02-25T19:06:17.074Z,67.10
2019-02-25T19:08:47.022Z,67.30
2019-02-25T19:11:34.917Z,67.60
2019-02-25T19:14:04.173Z,68.00
2019-02-25T19:16:53.595Z,70.30
2019-02-25T19:19:38.448Z,70.60
2019-02-25T19:22:20.510Z,71.30
2019-02-25T19:25:04.039Z,71.00
2019-02-25T19:27:33.728Z,71.50
2019-02-25T19:30:03.070Z,75.00
2019-02-25T19:32:52.332Z,76.50
2019-02-25T19:35:40.844Z,77.10
2019-02-25T19:38:12.787Z,80.20
2019-02-25T19:40:43.120Z,81.60
2019-02-25T19:43:11.551Z,80.70
2019-02-25T19:45:40.975Z,83.40
2019-02-25T19:50:53.832Z,86.20
2019-02-25T19:53:36.546Z,85.10
2019-02-25T19:56:17.224Z,83.70
2019-02-25T19:58:45.870Z,85.30
2019-02-25T20:01:33.817Z,85.60
2019-02-25T20:04:06.395Z,85.20
2019-02-25T20:06:53.718Z,86.60
2019-02-25T20:09:23.729Z,87.40
2019-02-25T20:12:11.721Z,88.10
2019-02-25T20:14:59.697Z,89.00
2019-02-25T20:17:44.160Z,90.30
2019-02-25T20:23:10.770Z,90.90
2019-02-25T20:25:42.453Z,91.20
2019-02-25T20:28:28.952Z,91.50
2019-02-25T20:31:10.489Z,91.70
2019-02-25T20:34:01.492Z,92.00
2019-02-25T20:36:50.434Z,92.50
2019-02-25T20:39:33.657Z,92.80
2019-02-25T20:44:59.839Z,94.00
2019-02-25T20:47:48.356Z,94.60
2019-02-25T20:50:37.135Z,94.80
2019-02-25T20:53:25.672Z,95.60
2019-02-25T20:56:08.630Z,95.80
2019-02-25T20:58:38.318Z,96.00
2019-02-25T21:01:27.402Z,96.20
2019-02-25T21:04:11.453Z,98.00
2019-02-25T21:06:52.459Z,98.70
2019-02-25T21:09:21.478Z,98.80
2019-02-25T21:12:10.459Z,99.30
2019-02-25T21:14:58.945Z,99.50
2019-02-25T21:17:40.276Z,98.90
2019-02-25T21:20:21.431Z,98.40
2019-02-25T21:26:00.217Z,99.10
2019-02-25T21:28:42.847Z,98.50
2019-02-25T21:31:26.468Z,98.20
2019-02-25T21:34:06.725Z,98.10
2019-02-25T21:36:36.018Z,99.10
2019-02-25T21:41:35.346Z,99.60
2019-02-25T21:44:19.010Z,99.90
2019-02-25T21:47:01.090Z,99.90
2019-02-25T21:49:42.237Z,99.90
2019-02-25T21:52:13.071Z,99.90
2019-02-25T21:57:40.787Z,99.90
2019-02-25T22:00:31.905Z,99.90
2019-02-25T22:05:34.728Z,99.90
2019-02-25T22:08:24.357Z,99.90
2019-02-25T22:14:01.471Z,99.90
2019-02-25T22:19:41.377Z,99.90
2019-02-25T22:22:10.218Z,99.90
2019-02-25T22:39:25.138Z,99.90
2019-02-25T22:44:31.266Z,99.90
2019-02-25T22:47:27.520Z,99.90
2019-02-25T22:49:49.799Z,99.90
2019-02-25T22:52:31.413Z,99.90
2019-02-25T22:55:15.246Z,99.90
2019-02-25T22:58:03.140Z,99.90
2019-02-25T23:03:45.553Z,99.90
2019-02-25T23:06:15.779Z,99.90
2019-02-25T23:08:56.624Z,99.90
2019-02-25T23:11:39.871Z,99.90
2019-02-25T23:14:09.453Z,99.90
2019-02-25T23:16:39.394Z,99.90
2019-02-25T23:19:22.513Z,99.90
2019-02-25T23:22:03.994Z,99.90
2019-02-25T23:24:45.487Z,99.90
2019-02-25T23:27:27.436Z,99.90
2019-02-25T23:29:56.578Z,99.90
2019-02-25T23:33:03.866Z,99.90
2019-02-25T23:35:32.799Z,99.90
2019-02-25T23:38:13.926Z,99.90
2019-02-25T23:40:55.076Z,99.90
2019-02-25T23:43:23.895Z,99.90
2019-02-25T23:46:11.995Z,99.90
2019-02-25T23:49:00.085Z,99.90
2019-02-25T23:51:41.687Z,99.90
2019-02-25T23:54:12.169Z,99.90
2019-02-25T23:57:02.019Z,99.90
2019-02-25T23:59:44.448Z,99.90
